RYR5121 LEMD-LIME
Flight info
| Callsign | RYR5121 |
|---|---|
| Flight time | 1h 43m |
| Altitude | 36000 |
| Route | PINAR N870 BCN M985 LUMAS DCT UNANA DCT STP DCT RAPED DCT PIGOS DCT EKSID DCT NOSTA DCT EGHIN DCT ITCAP Q713 AMOXI T836 DIXER |
| Aircraft | B738/M-SDE3FGIJ1LRWY/SB1 |
Departure
| Time | 2026-05-08 04:23 |
|---|---|
| Airport | Adolfo Suárez Madrid–Barajas Airport (LEMD) |
Arrival
| Time | 2026-05-08 06:07 |
|---|---|
| Airport | Il Caravaggio International Airport (LIME) |
| Time | Latitude | Longitude | Altitude | Speed | Heading |
|---|---|---|---|---|---|
| 2026-05-08 03:53 | 40.46568 | -3.56826 | 1972 ft | 0 kts | 262° |
| 2026-05-08 04:07 | 40.46568 | -3.56824 | 1977 ft | 2 kts | 262° |
| 2026-05-08 04:07 | 40.46571 | -3.56791 | 1975 ft | 4 kts | 268° |
| 2026-05-08 04:08 | 40.46570 | -3.56756 | 1977 ft | 4 kts | 281° |
| 2026-05-08 04:08 | 40.46561 | -3.56724 | 1975 ft | 4 kts | 313° |
| 2026-05-08 04:08 | 40.46547 | -3.56713 | 1977 ft | 1 kts | 3° |
| 2026-05-08 04:08 | 40.46543 | -3.56713 | 1976 ft | 0 kts | 3° |
| 2026-05-08 04:13 | 40.46549 | -3.56713 | 1976 ft | 2 kts | 3° |
| 2026-05-08 04:13 | 40.46572 | -3.56711 | 1976 ft | 5 kts | 4° |
| 2026-05-08 04:13 | 40.46614 | -3.56708 | 1972 ft | 8 kts | 3° |
| 2026-05-08 04:13 | 40.46676 | -3.56703 | 1972 ft | 10 kts | 3° |
| 2026-05-08 04:14 | 40.46752 | -3.56698 | 1973 ft | 10 kts | 3° |
| 2026-05-08 04:14 | 40.46801 | -3.56633 | 1974 ft | 12 kts | 84° |
| 2026-05-08 04:14 | 40.46804 | -3.56509 | 1973 ft | 15 kts | 73° |
| 2026-05-08 04:14 | 40.46896 | -3.56457 | 1975 ft | 16 kts | 4° |
| 2026-05-08 04:15 | 40.47012 | -3.56455 | 1977 ft | 17 kts | 355° |
| 2026-05-08 04:15 | 40.47122 | -3.56495 | 1980 ft | 16 kts | 334° |
| 2026-05-08 04:15 | 40.47214 | -3.56573 | 1985 ft | 16 kts | 323° |
| 2026-05-08 04:15 | 40.47298 | -3.56659 | 1984 ft | 15 kts | 322° |
| 2026-05-08 04:16 | 40.47378 | -3.56741 | 1987 ft | 14 kts | 322° |
| 2026-05-08 04:16 | 40.47457 | -3.56821 | 1989 ft | 14 kts | 322° |
| 2026-05-08 04:16 | 40.47531 | -3.56897 | 1991 ft | 13 kts | 322° |
| 2026-05-08 04:16 | 40.47605 | -3.56972 | 1993 ft | 14 kts | 322° |
| 2026-05-08 04:17 | 40.47680 | -3.57048 | 1996 ft | 13 kts | 322° |
| 2026-05-08 04:17 | 40.47752 | -3.57120 | 1998 ft | 13 kts | 322° |
| 2026-05-08 04:17 | 40.47821 | -3.57191 | 1999 ft | 12 kts | 322° |
| 2026-05-08 04:17 | 40.47889 | -3.57260 | 2003 ft | 12 kts | 322° |
| 2026-05-08 04:18 | 40.47956 | -3.57329 | 2004 ft | 14 kts | 323° |
| 2026-05-08 04:18 | 40.48041 | -3.57416 | 2001 ft | 17 kts | 322° |
| 2026-05-08 04:18 | 40.48146 | -3.57522 | 1999 ft | 21 kts | 322° |
| 2026-05-08 04:18 | 40.48269 | -3.57647 | 1995 ft | 24 kts | 322° |
| 2026-05-08 04:19 | 40.48410 | -3.57789 | 1992 ft | 27 kts | 322° |
| 2026-05-08 04:19 | 40.48531 | -3.57882 | 1995 ft | 15 kts | 336° |
| 2026-05-08 04:19 | 40.48630 | -3.57923 | 1998 ft | 16 kts | 355° |
| 2026-05-08 04:19 | 40.48747 | -3.57926 | 1998 ft | 18 kts | 359° |
| 2026-05-08 04:20 | 40.48878 | -3.57928 | 1998 ft | 20 kts | 359° |
| 2026-05-08 04:20 | 40.49022 | -3.57929 | 1998 ft | 22 kts | 359° |
| 2026-05-08 04:20 | 40.49127 | -3.57930 | 1998 ft | 3 kts | 359° |
| 2026-05-08 04:20 | 40.49147 | -3.57927 | 1997 ft | 3 kts | 14° |
| 2026-05-08 04:21 | 40.49171 | -3.57892 | 1996 ft | 8 kts | 68° |
| 2026-05-08 04:21 | 40.49172 | -3.57788 | 1992 ft | 15 kts | 91° |
| 2026-05-08 04:21 | 40.49170 | -3.57683 | 1989 ft | 8 kts | 90° |
| 2026-05-08 04:21 | 40.49186 | -3.57589 | 1990 ft | 13 kts | 67° |
| 2026-05-08 04:22 | 40.49244 | -3.57471 | 1983 ft | 18 kts | 30° |
| 2026-05-08 04:22 | 40.49378 | -3.57452 | 1982 ft | 21 kts | 0° |
| 2026-05-08 04:22 | 40.49647 | -3.57457 | 1984 ft | 68 kts | 359° |
| 2026-05-08 04:22 | 40.50323 | -3.57460 | 1989 ft | 126 kts | 360° |
| 2026-05-08 04:23 | 40.51362 | -3.57467 | 2082 ft | 166 kts | 359° |
| 2026-05-08 04:23 | 40.52532 | -3.57448 | 2666 ft | 170 kts | 1° |
| 2026-05-08 04:23 | 40.53706 | -3.57373 | 3388 ft | 165 kts | 2° |
| 2026-05-08 04:23 | 40.54872 | -3.57360 | 3757 ft | 172 kts | 7° |
| 2026-05-08 04:24 | 40.56056 | -3.57047 | 4112 ft | 176 kts | 16° |
| 2026-05-08 04:24 | 40.57247 | -3.56622 | 4541 ft | 178 kts | 18° |
| 2026-05-08 04:24 | 40.58454 | -3.56179 | 4937 ft | 182 kts | 18° |
| 2026-05-08 04:24 | 40.59715 | -3.55713 | 5262 ft | 201 kts | 18° |
| 2026-05-08 04:25 | 40.61141 | -3.55184 | 5479 ft | 225 kts | 18° |
| 2026-05-08 04:25 | 40.62714 | -3.54601 | 5737 ft | 243 kts | 17° |
| 2026-05-08 04:25 | 40.64403 | -3.54088 | 6264 ft | 254 kts | 7° |
| 2026-05-08 04:25 | 40.66179 | -3.53964 | 7009 ft | 255 kts | 4° |
| 2026-05-08 04:26 | 40.67938 | -3.53842 | 7727 ft | 258 kts | 4° |
| 2026-05-08 04:26 | 40.69731 | -3.53547 | 8403 ft | 261 kts | 21° |
| 2026-05-08 04:26 | 40.71215 | -3.52164 | 8839 ft | 272 kts | 53° |
| 2026-05-08 04:26 | 40.72348 | -3.50063 | 9171 ft | 290 kts | 58° |
| 2026-05-08 04:27 | 40.73484 | -3.47817 | 9800 ft | 298 kts | 59° |
| 2026-05-08 04:27 | 40.74642 | -3.45521 | 10360 ft | 308 kts | 58° |
| 2026-05-08 04:27 | 40.75879 | -3.43085 | 10551 ft | 330 kts | 58° |
| 2026-05-08 04:27 | 40.77183 | -3.40539 | 11119 ft | 338 kts | 57° |
| 2026-05-08 04:28 | 40.78515 | -3.37957 | 11808 ft | 343 kts | 57° |
| 2026-05-08 04:28 | 40.79868 | -3.35342 | 12532 ft | 347 kts | 57° |
| 2026-05-08 04:28 | 40.81239 | -3.32692 | 13254 ft | 352 kts | 56° |
| 2026-05-08 04:28 | 40.82632 | -3.30000 | 13960 ft | 357 kts | 56° |
| 2026-05-08 04:29 | 40.84041 | -3.27273 | 14614 ft | 362 kts | 57° |
| 2026-05-08 04:29 | 40.85407 | -3.24457 | 15273 ft | 366 kts | 66° |
| 2026-05-08 04:29 | 40.86191 | -3.21256 | 15957 ft | 367 kts | 78° |
| 2026-05-08 04:29 | 40.86810 | -3.17965 | 16668 ft | 371 kts | 79° |
| 2026-05-08 04:30 | 40.87433 | -3.14629 | 17356 ft | 376 kts | 79° |
| 2026-05-08 04:30 | 40.88069 | -3.11260 | 18024 ft | 381 kts | 79° |
| 2026-05-08 04:30 | 40.88722 | -3.07847 | 18626 ft | 385 kts | 79° |
| 2026-05-08 04:30 | 40.89382 | -3.04441 | 19219 ft | 389 kts | 78° |
| 2026-05-08 04:31 | 40.90061 | -3.00958 | 19767 ft | 394 kts | 78° |
| 2026-05-08 04:31 | 40.90750 | -2.97436 | 20346 ft | 397 kts | 78° |
| 2026-05-08 04:31 | 40.91446 | -2.93880 | 20955 ft | 400 kts | 78° |
| 2026-05-08 04:31 | 40.92145 | -2.90305 | 21547 ft | 403 kts | 78° |
| 2026-05-08 04:32 | 40.92849 | -2.86695 | 22107 ft | 407 kts | 78° |
| 2026-05-08 04:32 | 40.93558 | -2.83053 | 22660 ft | 410 kts | 78° |
| 2026-05-08 04:32 | 40.94271 | -2.79383 | 23220 ft | 414 kts | 78° |
| 2026-05-08 04:32 | 40.94990 | -2.75677 | 23735 ft | 417 kts | 78° |
| 2026-05-08 04:33 | 40.95713 | -2.71940 | 24179 ft | 420 kts | 78° |
| 2026-05-08 04:33 | 40.96430 | -2.68229 | 24616 ft | 424 kts | 78° |
| 2026-05-08 04:33 | 40.97163 | -2.64427 | 25021 ft | 428 kts | 77° |
| 2026-05-08 04:33 | 40.97902 | -2.60586 | 25432 ft | 431 kts | 77° |
| 2026-05-08 04:34 | 40.98644 | -2.56718 | 25866 ft | 435 kts | 78° |
| 2026-05-08 04:34 | 40.99388 | -2.52825 | 26281 ft | 438 kts | 78° |
| 2026-05-08 04:34 | 41.00138 | -2.48894 | 26690 ft | 441 kts | 78° |
| 2026-05-08 04:34 | 41.00891 | -2.44940 | 27089 ft | 445 kts | 78° |
| 2026-05-08 04:35 | 41.01649 | -2.40954 | 27484 ft | 448 kts | 78° |
| 2026-05-08 04:35 | 41.02402 | -2.36990 | 27871 ft | 451 kts | 78° |
| 2026-05-08 04:35 | 41.03168 | -2.32947 | 28255 ft | 454 kts | 78° |
| 2026-05-08 04:35 | 41.03942 | -2.28863 | 28617 ft | 457 kts | 78° |
| 2026-05-08 04:36 | 41.04717 | -2.24763 | 28957 ft | 462 kts | 77° |
| 2026-05-08 04:36 | 41.05500 | -2.20616 | 29281 ft | 466 kts | 77° |
| 2026-05-08 04:36 | 41.06288 | -2.16436 | 29641 ft | 469 kts | 77° |
| 2026-05-08 04:36 | 41.07079 | -2.12234 | 29997 ft | 471 kts | 77° |
| 2026-05-08 04:37 | 41.07872 | -2.08004 | 30282 ft | 474 kts | 77° |
| 2026-05-08 04:37 | 41.08667 | -2.03751 | 30548 ft | 477 kts | 77° |
| 2026-05-08 04:37 | 41.09465 | -1.99463 | 30817 ft | 480 kts | 77° |
| 2026-05-08 04:37 | 41.10266 | -1.95150 | 31084 ft | 483 kts | 77° |
| 2026-05-08 04:38 | 41.11068 | -1.90819 | 31347 ft | 485 kts | 77° |
| 2026-05-08 04:38 | 41.11873 | -1.86463 | 31684 ft | 486 kts | 77° |
| 2026-05-08 04:38 | 41.12678 | -1.82105 | 32056 ft | 486 kts | 77° |
| 2026-05-08 04:38 | 41.13478 | -1.77759 | 32423 ft | 485 kts | 77° |
| 2026-05-08 04:39 | 41.14008 | -1.74876 | 32649 ft | 486 kts | 77° |
| 2026-05-08 04:39 | 41.15071 | -1.69083 | 33056 ft | 487 kts | 77° |
| 2026-05-08 04:39 | 41.15869 | -1.64716 | 33385 ft | 487 kts | 77° |
| 2026-05-08 04:39 | 41.16400 | -1.61808 | 33603 ft | 487 kts | 77° |
| 2026-05-08 04:40 | 41.17198 | -1.57430 | 33908 ft | 488 kts | 77° |
| 2026-05-08 04:40 | 41.17996 | -1.53041 | 34176 ft | 489 kts | 77° |
| 2026-05-08 04:40 | 41.18792 | -1.48650 | 34413 ft | 490 kts | 77° |
| 2026-05-08 04:40 | 41.19590 | -1.44241 | 34652 ft | 491 kts | 77° |
| 2026-05-08 04:41 | 41.20388 | -1.39823 | 34948 ft | 491 kts | 77° |
| 2026-05-08 04:41 | 41.21181 | -1.35424 | 35277 ft | 489 kts | 77° |
| 2026-05-08 04:41 | 41.21972 | -1.31026 | 35558 ft | 489 kts | 77° |
| 2026-05-08 04:41 | 41.22762 | -1.26623 | 35811 ft | 489 kts | 77° |
| 2026-05-08 04:42 | 41.23550 | -1.22217 | 36012 ft | 491 kts | 78° |
| 2026-05-08 04:42 | 41.24333 | -1.17832 | 35980 ft | 495 kts | 78° |
| 2026-05-08 04:42 | 41.25919 | -1.08916 | 35975 ft | 493 kts | 77° |
| 2026-05-08 04:43 | 41.27482 | -1.00088 | 35975 ft | 489 kts | 77° |
| 2026-05-08 04:43 | 41.29033 | -0.91285 | 35983 ft | 488 kts | 77° |
| 2026-05-08 04:44 | 41.30577 | -0.82479 | 35976 ft | 488 kts | 77° |
| 2026-05-08 04:44 | 41.32101 | -0.73744 | 35967 ft | 488 kts | 77° |
| 2026-05-08 04:45 | 41.33633 | -0.64928 | 35979 ft | 489 kts | 77° |
| 2026-05-08 04:45 | 41.35135 | -0.56088 | 35992 ft | 491 kts | 80° |
| 2026-05-08 04:46 | 41.35487 | -0.47031 | 35989 ft | 490 kts | 92° |
| 2026-05-08 04:46 | 41.35329 | -0.37941 | 35978 ft | 492 kts | 92° |
| 2026-05-08 04:47 | 41.35200 | -0.28816 | 35980 ft | 493 kts | 92° |
| 2026-05-08 04:47 | 41.35113 | -0.19720 | 35979 ft | 494 kts | 92° |
| 2026-05-08 04:48 | 41.35031 | -0.10565 | 35980 ft | 494 kts | 92° |
| 2026-05-08 04:48 | 41.34940 | -0.01413 | 35979 ft | 494 kts | 92° |
| 2026-05-08 04:49 | 41.34839 | 0.07724 | 35979 ft | 494 kts | 92° |
| 2026-05-08 04:49 | 41.34732 | 0.16864 | 35965 ft | 493 kts | 92° |
| 2026-05-08 04:50 | 41.34617 | 0.25996 | 35976 ft | 493 kts | 92° |
| 2026-05-08 04:50 | 41.34493 | 0.35060 | 35990 ft | 493 kts | 92° |
| 2026-05-08 04:51 | 41.34363 | 0.44182 | 35973 ft | 493 kts | 92° |
| 2026-05-08 04:51 | 41.34227 | 0.53315 | 35991 ft | 493 kts | 92° |
| 2026-05-08 04:52 | 41.34081 | 0.62461 | 36000 ft | 494 kts | 92° |
| 2026-05-08 04:52 | 41.33927 | 0.71610 | 36002 ft | 495 kts | 92° |
| 2026-05-08 04:53 | 41.33767 | 0.80769 | 35987 ft | 496 kts | 92° |
| 2026-05-08 04:53 | 41.33600 | 0.89948 | 35998 ft | 496 kts | 92° |
| 2026-05-08 04:54 | 41.33426 | 0.99126 | 35989 ft | 497 kts | 92° |
| 2026-05-08 04:54 | 41.33244 | 1.08334 | 35978 ft | 497 kts | 92° |
| 2026-05-08 04:55 | 41.33055 | 1.17533 | 35975 ft | 498 kts | 92° |
| 2026-05-08 04:55 | 41.32858 | 1.26670 | 35971 ft | 498 kts | 92° |
| 2026-05-08 04:56 | 41.32653 | 1.35888 | 35987 ft | 498 kts | 92° |
| 2026-05-08 04:56 | 41.32441 | 1.45107 | 35986 ft | 499 kts | 92° |
| 2026-05-08 04:57 | 41.32222 | 1.54335 | 35986 ft | 499 kts | 92° |
| 2026-05-08 04:57 | 41.31996 | 1.63572 | 35981 ft | 500 kts | 92° |
| 2026-05-08 04:58 | 41.31762 | 1.72809 | 35985 ft | 500 kts | 92° |
| 2026-05-08 04:58 | 41.31517 | 1.82041 | 35985 ft | 500 kts | 92° |
| 2026-05-08 04:59 | 41.31266 | 1.91280 | 35974 ft | 500 kts | 92° |
| 2026-05-08 04:59 | 41.31009 | 2.00516 | 35963 ft | 500 kts | 92° |
| 2026-05-08 05:00 | 41.30821 | 2.09755 | 35962 ft | 499 kts | 86° |
| 2026-05-08 05:00 | 41.31203 | 2.14320 | 35956 ft | 497 kts | 75° |
| 2026-05-08 05:00 | 41.31982 | 2.18786 | 35980 ft | 495 kts | 73° |
| 2026-05-08 05:01 | 41.33653 | 2.27687 | 35973 ft | 497 kts | 73° |
| 2026-05-08 05:01 | 41.35296 | 2.36623 | 35970 ft | 498 kts | 73° |
| 2026-05-08 05:02 | 41.36887 | 2.45600 | 35973 ft | 499 kts | 73° |
| 2026-05-08 05:02 | 41.38457 | 2.54596 | 35973 ft | 499 kts | 74° |
| 2026-05-08 05:03 | 41.40013 | 2.63549 | 35977 ft | 500 kts | 74° |
| 2026-05-08 05:03 | 41.41577 | 2.72581 | 35978 ft | 501 kts | 73° |
| 2026-05-08 05:04 | 41.43937 | 2.81201 | 35987 ft | 491 kts | 54° |
| 2026-05-08 05:04 | 41.47725 | 2.88667 | 35985 ft | 486 kts | 48° |
| 2026-05-08 05:05 | 41.51623 | 2.96059 | 35981 ft | 488 kts | 49° |
| 2026-05-08 05:05 | 41.55493 | 3.03517 | 35988 ft | 490 kts | 49° |
| 2026-05-08 05:06 | 41.59346 | 3.11038 | 35984 ft | 491 kts | 49° |
| 2026-05-08 05:06 | 41.63186 | 3.18574 | 35976 ft | 490 kts | 50° |
| 2026-05-08 05:07 | 41.67009 | 3.26097 | 35973 ft | 488 kts | 50° |
| 2026-05-08 05:07 | 41.70815 | 3.33598 | 35975 ft | 487 kts | 50° |
| 2026-05-08 05:08 | 41.74606 | 3.41085 | 35995 ft | 485 kts | 50° |
| 2026-05-08 05:08 | 41.78381 | 3.48558 | 35979 ft | 483 kts | 50° |
| 2026-05-08 05:09 | 41.82137 | 3.56009 | 35979 ft | 482 kts | 50° |
| 2026-05-08 05:09 | 41.85873 | 3.63443 | 35983 ft | 480 kts | 50° |
| 2026-05-08 05:10 | 41.91458 | 3.74585 | 35987 ft | 479 kts | 50° |
| 2026-05-08 05:11 | 41.95176 | 3.82026 | 35982 ft | 480 kts | 51° |
| 2026-05-08 05:11 | 41.98891 | 3.89478 | 35988 ft | 481 kts | 50° |
| 2026-05-08 05:12 | 42.02586 | 3.96911 | 35998 ft | 482 kts | 50° |
| 2026-05-08 05:12 | 42.06318 | 4.04434 | 35999 ft | 484 kts | 50° |
| 2026-05-08 05:13 | 42.10052 | 4.11983 | 36001 ft | 486 kts | 51° |
| 2026-05-08 05:13 | 42.13797 | 4.19573 | 36023 ft | 487 kts | 51° |
| 2026-05-08 05:14 | 42.17522 | 4.27145 | 35991 ft | 480 kts | 52° |
| 2026-05-08 05:14 | 42.21183 | 4.34608 | 35994 ft | 476 kts | 52° |
| 2026-05-08 05:15 | 42.24836 | 4.42062 | 35998 ft | 477 kts | 52° |
| 2026-05-08 05:15 | 42.28499 | 4.49557 | 36005 ft | 478 kts | 52° |
| 2026-05-08 05:16 | 42.32157 | 4.57061 | 36021 ft | 479 kts | 52° |
| 2026-05-08 05:16 | 42.35813 | 4.64583 | 36001 ft | 479 kts | 53° |
| 2026-05-08 05:17 | 42.39465 | 4.72114 | 35996 ft | 478 kts | 53° |
| 2026-05-08 05:17 | 42.43103 | 4.79638 | 35997 ft | 477 kts | 53° |
| 2026-05-08 05:18 | 42.46707 | 4.87109 | 35996 ft | 476 kts | 53° |
| 2026-05-08 05:18 | 42.50323 | 4.94622 | 35998 ft | 475 kts | 53° |
| 2026-05-08 05:19 | 42.53923 | 5.02121 | 36002 ft | 474 kts | 54° |
| 2026-05-08 05:19 | 42.57511 | 5.09616 | 35996 ft | 473 kts | 54° |
| 2026-05-08 05:20 | 42.61082 | 5.17091 | 35997 ft | 471 kts | 54° |
| 2026-05-08 05:20 | 42.64641 | 5.24562 | 35999 ft | 470 kts | 54° |
| 2026-05-08 05:21 | 42.68185 | 5.32019 | 35998 ft | 470 kts | 54° |
| 2026-05-08 05:21 | 42.71720 | 5.39475 | 36001 ft | 469 kts | 55° |
| 2026-05-08 05:22 | 42.75251 | 5.46941 | 35998 ft | 469 kts | 55° |
| 2026-05-08 05:22 | 42.78773 | 5.54408 | 35999 ft | 469 kts | 55° |
| 2026-05-08 05:23 | 42.82293 | 5.61889 | 35998 ft | 469 kts | 55° |
| 2026-05-08 05:23 | 42.85811 | 5.69386 | 36000 ft | 470 kts | 55° |
| 2026-05-08 05:24 | 42.89329 | 5.76901 | 36013 ft | 470 kts | 57° |
| 2026-05-08 05:24 | 42.92847 | 5.84434 | 35999 ft | 471 kts | 57° |
| 2026-05-08 05:25 | 42.96359 | 5.91975 | 35997 ft | 471 kts | 57° |
| 2026-05-08 05:25 | 42.99868 | 5.99529 | 35995 ft | 471 kts | 57° |
| 2026-05-08 05:26 | 43.03343 | 6.07028 | 35994 ft | 470 kts | 57° |
| 2026-05-08 05:26 | 43.06835 | 6.14584 | 36004 ft | 470 kts | 58° |
| 2026-05-08 05:27 | 43.10318 | 6.22139 | 35992 ft | 469 kts | 58° |
| 2026-05-08 05:27 | 43.13793 | 6.29695 | 35997 ft | 469 kts | 58° |
| 2026-05-08 05:28 | 43.16698 | 6.36029 | 35996 ft | 469 kts | 58° |
| 2026-05-08 05:28 | 43.20138 | 6.43543 | 35989 ft | 468 kts | 58° |
| 2026-05-08 05:29 | 43.23589 | 6.51103 | 35990 ft | 468 kts | 58° |
| 2026-05-08 05:29 | 43.27040 | 6.58683 | 35997 ft | 468 kts | 59° |
| 2026-05-08 05:30 | 43.30484 | 6.66267 | 35999 ft | 469 kts | 59° |
| 2026-05-08 05:30 | 43.33928 | 6.73871 | 35998 ft | 469 kts | 59° |
| 2026-05-08 05:31 | 43.37372 | 6.81493 | 35998 ft | 470 kts | 59° |
| 2026-05-08 05:31 | 43.40815 | 6.89135 | 35988 ft | 470 kts | 59° |
| 2026-05-08 05:32 | 43.44256 | 6.96792 | 36003 ft | 471 kts | 59° |
| 2026-05-08 05:32 | 43.47703 | 7.04481 | 35999 ft | 472 kts | 59° |
| 2026-05-08 05:33 | 43.51152 | 7.12196 | 35996 ft | 473 kts | 59° |
| 2026-05-08 05:33 | 43.54574 | 7.19873 | 35995 ft | 474 kts | 59° |
| 2026-05-08 05:34 | 43.58017 | 7.27616 | 35993 ft | 474 kts | 59° |
| 2026-05-08 05:34 | 43.61462 | 7.35380 | 36004 ft | 475 kts | 59° |
| 2026-05-08 05:35 | 43.65123 | 7.42967 | 35994 ft | 475 kts | 55° |
| 2026-05-08 05:35 | 43.69419 | 7.49873 | 36012 ft | 474 kts | 43° |
| 2026-05-08 05:36 | 43.74312 | 7.55989 | 36002 ft | 474 kts | 41° |
| 2026-05-08 05:36 | 43.79228 | 7.62077 | 35996 ft | 474 kts | 41° |
| 2026-05-08 05:37 | 43.84099 | 7.68233 | 36011 ft | 474 kts | 42° |
| 2026-05-08 05:37 | 43.88939 | 7.74432 | 35671 ft | 472 kts | 43° |
| 2026-05-08 05:37 | 43.91330 | 7.77508 | 35344 ft | 465 kts | 43° |
| 2026-05-08 05:38 | 43.93695 | 7.80554 | 34969 ft | 462 kts | 43° |
| 2026-05-08 05:38 | 43.96041 | 7.83579 | 34613 ft | 460 kts | 43° |
| 2026-05-08 05:38 | 43.98382 | 7.86598 | 34212 ft | 458 kts | 44° |
| 2026-05-08 05:38 | 44.00711 | 7.89605 | 33795 ft | 457 kts | 44° |
| 2026-05-08 05:39 | 44.03029 | 7.92601 | 33366 ft | 454 kts | 44° |
| 2026-05-08 05:39 | 44.05333 | 7.95581 | 32978 ft | 450 kts | 44° |
| 2026-05-08 05:39 | 44.07618 | 7.98540 | 32580 ft | 447 kts | 44° |
| 2026-05-08 05:39 | 44.09881 | 8.01474 | 32223 ft | 443 kts | 44° |
| 2026-05-08 05:40 | 44.12100 | 8.04353 | 31874 ft | 441 kts | 44° |
| 2026-05-08 05:40 | 44.14334 | 8.07257 | 31513 ft | 438 kts | 44° |
| 2026-05-08 05:40 | 44.16581 | 8.10180 | 31154 ft | 435 kts | 44° |
| 2026-05-08 05:40 | 44.18761 | 8.13018 | 30792 ft | 433 kts | 44° |
| 2026-05-08 05:41 | 44.20956 | 8.15879 | 30435 ft | 431 kts | 44° |
| 2026-05-08 05:41 | 44.23143 | 8.18732 | 30062 ft | 429 kts | 44° |
| 2026-05-08 05:41 | 44.25313 | 8.21567 | 29656 ft | 426 kts | 44° |
| 2026-05-08 05:41 | 44.27463 | 8.24380 | 29268 ft | 422 kts | 44° |
| 2026-05-08 05:42 | 44.29600 | 8.27178 | 28887 ft | 419 kts | 44° |
| 2026-05-08 05:42 | 44.31713 | 8.29946 | 28540 ft | 415 kts | 43° |
| 2026-05-08 05:42 | 44.33810 | 8.32697 | 28149 ft | 412 kts | 43° |
| 2026-05-08 05:42 | 44.35891 | 8.35431 | 27765 ft | 409 kts | 43° |
| 2026-05-08 05:43 | 44.37953 | 8.38141 | 27413 ft | 406 kts | 43° |
| 2026-05-08 05:43 | 44.40003 | 8.40838 | 27055 ft | 403 kts | 43° |
| 2026-05-08 05:43 | 44.42039 | 8.43520 | 26700 ft | 400 kts | 43° |
| 2026-05-08 05:43 | 44.44057 | 8.46180 | 26328 ft | 397 kts | 43° |
| 2026-05-08 05:44 | 44.46058 | 8.48822 | 25987 ft | 394 kts | 43° |
| 2026-05-08 05:44 | 44.48048 | 8.51451 | 25634 ft | 392 kts | 43° |
| 2026-05-08 05:44 | 44.50025 | 8.54065 | 25279 ft | 390 kts | 42° |
| 2026-05-08 05:44 | 44.51990 | 8.56666 | 24930 ft | 388 kts | 42° |
| 2026-05-08 05:45 | 44.53948 | 8.59260 | 24578 ft | 386 kts | 42° |
| 2026-05-08 05:45 | 44.55891 | 8.61838 | 24236 ft | 384 kts | 42° |
| 2026-05-08 05:45 | 44.57822 | 8.64401 | 23891 ft | 382 kts | 42° |
| 2026-05-08 05:45 | 44.59749 | 8.66961 | 23527 ft | 380 kts | 42° |
| 2026-05-08 05:46 | 44.61638 | 8.69474 | 23131 ft | 378 kts | 42° |
| 2026-05-08 05:46 | 44.63543 | 8.72008 | 22741 ft | 376 kts | 42° |
| 2026-05-08 05:46 | 44.65452 | 8.74553 | 22398 ft | 372 kts | 42° |
| 2026-05-08 05:46 | 44.67302 | 8.77020 | 22057 ft | 370 kts | 42° |
| 2026-05-08 05:47 | 44.69156 | 8.79495 | 21712 ft | 367 kts | 42° |
| 2026-05-08 05:47 | 44.71002 | 8.81962 | 21368 ft | 364 kts | 42° |
| 2026-05-08 05:47 | 44.72831 | 8.84408 | 21043 ft | 362 kts | 42° |
| 2026-05-08 05:47 | 44.74648 | 8.86840 | 20699 ft | 359 kts | 42° |
| 2026-05-08 05:48 | 44.76450 | 8.89255 | 20368 ft | 357 kts | 43° |
| 2026-05-08 05:48 | 44.78242 | 8.91658 | 20039 ft | 355 kts | 43° |
| 2026-05-08 05:48 | 44.80024 | 8.94050 | 19704 ft | 353 kts | 43° |
| 2026-05-08 05:48 | 44.81795 | 8.96429 | 19374 ft | 351 kts | 43° |
| 2026-05-08 05:49 | 44.83559 | 8.98800 | 19044 ft | 349 kts | 43° |
| 2026-05-08 05:49 | 44.85309 | 9.01156 | 18707 ft | 348 kts | 43° |
| 2026-05-08 05:49 | 44.87052 | 9.03504 | 18380 ft | 346 kts | 44° |
| 2026-05-08 05:49 | 44.88793 | 9.05852 | 17995 ft | 345 kts | 44° |
| 2026-05-08 05:50 | 44.90520 | 9.08183 | 17635 ft | 343 kts | 44° |
| 2026-05-08 05:50 | 44.92238 | 9.10504 | 17304 ft | 341 kts | 44° |
| 2026-05-08 05:50 | 44.93944 | 9.12810 | 16958 ft | 338 kts | 44° |
| 2026-05-08 05:50 | 44.95633 | 9.15096 | 16634 ft | 335 kts | 44° |
| 2026-05-08 05:51 | 44.97309 | 9.17366 | 16312 ft | 333 kts | 44° |
| 2026-05-08 05:51 | 44.98973 | 9.19622 | 15987 ft | 331 kts | 44° |
| 2026-05-08 05:51 | 45.00627 | 9.21866 | 15655 ft | 329 kts | 44° |
| 2026-05-08 05:51 | 45.02270 | 9.24096 | 15341 ft | 327 kts | 44° |
| 2026-05-08 05:52 | 45.03903 | 9.26315 | 15020 ft | 325 kts | 44° |
| 2026-05-08 05:52 | 45.05528 | 9.28524 | 14703 ft | 323 kts | 44° |
| 2026-05-08 05:52 | 45.07142 | 9.30720 | 14392 ft | 322 kts | 44° |
| 2026-05-08 05:52 | 45.08729 | 9.32946 | 14070 ft | 320 kts | 46° |
| 2026-05-08 05:53 | 45.10243 | 9.35241 | 13747 ft | 318 kts | 47° |
| 2026-05-08 05:53 | 45.11709 | 9.37519 | 13396 ft | 317 kts | 47° |
| 2026-05-08 05:53 | 45.13190 | 9.39830 | 13061 ft | 315 kts | 47° |
| 2026-05-08 05:53 | 45.14658 | 9.42115 | 12733 ft | 313 kts | 47° |
| 2026-05-08 05:54 | 45.16118 | 9.44383 | 12407 ft | 309 kts | 47° |
| 2026-05-08 05:54 | 45.17552 | 9.46606 | 12085 ft | 304 kts | 47° |
| 2026-05-08 05:54 | 45.18974 | 9.48807 | 11761 ft | 302 kts | 47° |
| 2026-05-08 05:54 | 45.20386 | 9.50993 | 11476 ft | 300 kts | 47° |
| 2026-05-08 05:55 | 45.21790 | 9.53166 | 11170 ft | 298 kts | 47° |
| 2026-05-08 05:55 | 45.23184 | 9.55326 | 10868 ft | 296 kts | 47° |
| 2026-05-08 05:55 | 45.24571 | 9.57474 | 10569 ft | 294 kts | 47° |
| 2026-05-08 05:55 | 45.25949 | 9.59612 | 10269 ft | 293 kts | 47° |
| 2026-05-08 05:56 | 45.27310 | 9.61723 | 10096 ft | 285 kts | 47° |
| 2026-05-08 05:56 | 45.28624 | 9.63763 | 9851 ft | 276 kts | 47° |
| 2026-05-08 05:56 | 45.29902 | 9.65750 | 9556 ft | 269 kts | 47° |
| 2026-05-08 05:56 | 45.31149 | 9.67688 | 9274 ft | 262 kts | 47° |
| 2026-05-08 05:57 | 45.32362 | 9.69575 | 9027 ft | 255 kts | 47° |
| 2026-05-08 05:57 | 45.33547 | 9.71420 | 8759 ft | 250 kts | 47° |
| 2026-05-08 05:57 | 45.34716 | 9.73240 | 8521 ft | 250 kts | 47° |
| 2026-05-08 05:57 | 45.35892 | 9.75073 | 8281 ft | 253 kts | 47° |
| 2026-05-08 05:58 | 45.37108 | 9.76970 | 8028 ft | 265 kts | 47° |
| 2026-05-08 05:58 | 45.38360 | 9.78924 | 7747 ft | 268 kts | 47° |
| 2026-05-08 05:58 | 45.39601 | 9.80860 | 7452 ft | 262 kts | 47° |
| 2026-05-08 05:58 | 45.40834 | 9.82729 | 7179 ft | 256 kts | 47° |
| 2026-05-08 05:59 | 45.42047 | 9.84548 | 6944 ft | 250 kts | 47° |
| 2026-05-08 05:59 | 45.43216 | 9.86301 | 6686 ft | 245 kts | 47° |
| 2026-05-08 05:59 | 45.44396 | 9.88072 | 6496 ft | 241 kts | 47° |
| 2026-05-08 05:59 | 45.45530 | 9.89779 | 6381 ft | 240 kts | 47° |
| 2026-05-08 06:00 | 45.46686 | 9.91522 | 6257 ft | 244 kts | 47° |
| 2026-05-08 06:00 | 45.47846 | 9.93270 | 6114 ft | 239 kts | 47° |
| 2026-05-08 06:00 | 45.48962 | 9.94953 | 6001 ft | 228 kts | 46° |
| 2026-05-08 06:00 | 45.50237 | 9.96166 | 5815 ft | 221 kts | 14° |
| 2026-05-08 06:01 | 45.51744 | 9.96330 | 5655 ft | 215 kts | 0° |
| 2026-05-08 06:01 | 45.53222 | 9.96260 | 5421 ft | 210 kts | 359° |
| 2026-05-08 06:01 | 45.54669 | 9.96177 | 5175 ft | 205 kts | 359° |
| 2026-05-08 06:01 | 45.56084 | 9.96100 | 4910 ft | 202 kts | 359° |
| 2026-05-08 06:02 | 45.57474 | 9.96025 | 4659 ft | 198 kts | 359° |
| 2026-05-08 06:02 | 45.58836 | 9.95951 | 4415 ft | 194 kts | 359° |
| 2026-05-08 06:02 | 45.60168 | 9.95881 | 4180 ft | 190 kts | 359° |
| 2026-05-08 06:02 | 45.61459 | 9.95652 | 3928 ft | 187 kts | 337° |
| 2026-05-08 06:03 | 45.62349 | 9.94387 | 3758 ft | 186 kts | 291° |
| 2026-05-08 06:03 | 45.62717 | 9.92637 | 3625 ft | 183 kts | 286° |
| 2026-05-08 06:03 | 45.63060 | 9.90892 | 3410 ft | 181 kts | 285° |
| 2026-05-08 06:03 | 45.63381 | 9.89175 | 3160 ft | 175 kts | 285° |
| 2026-05-08 06:04 | 45.63692 | 9.87482 | 2929 ft | 178 kts | 284° |
| 2026-05-08 06:04 | 45.63992 | 9.85841 | 2690 ft | 163 kts | 285° |
| 2026-05-08 06:04 | 45.64269 | 9.84330 | 2489 ft | 155 kts | 285° |
| 2026-05-08 06:04 | 45.64539 | 9.82867 | 2283 ft | 151 kts | 285° |
| 2026-05-08 06:05 | 45.64803 | 9.81429 | 2090 ft | 149 kts | 285° |
| 2026-05-08 06:05 | 45.65068 | 9.79989 | 1895 ft | 150 kts | 285° |
| 2026-05-08 06:05 | 45.65334 | 9.78545 | 1701 ft | 149 kts | 286° |
| 2026-05-08 06:05 | 45.65597 | 9.77124 | 1485 ft | 147 kts | 287° |
| 2026-05-08 06:06 | 45.65855 | 9.75730 | 1301 ft | 144 kts | 286° |
| 2026-05-08 06:06 | 45.66106 | 9.74365 | 1136 ft | 143 kts | 288° |
| 2026-05-08 06:06 | 45.66362 | 9.72979 | 927 ft | 144 kts | 288° |
| 2026-05-08 06:06 | 45.66615 | 9.71592 | 793 ft | 139 kts | 287° |
| 2026-05-08 06:07 | 45.66817 | 9.70514 | 786 ft | 49 kts | 285° |
| 2026-05-08 06:07 | 45.66877 | 9.70183 | 786 ft | 25 kts | 283° |
| 2026-05-08 06:07 | 45.66882 | 9.70094 | 786 ft | 6 kts | 244° |
| 2026-05-08 06:07 | 45.66848 | 9.70065 | 786 ft | 6 kts | 183° |
| 2026-05-08 06:08 | 45.66817 | 9.70081 | 786 ft | 3 kts | 155° |
| 2026-05-08 06:08 | 45.66799 | 9.70093 | 786 ft | 3 kts | 155° |
| 2026-05-08 06:08 | 45.66780 | 9.70106 | 786 ft | 3 kts | 155° |
| 2026-05-08 06:08 | 45.66763 | 9.70118 | 786 ft | 3 kts | 153° |
| 2026-05-08 06:09 | 45.66746 | 9.70132 | 786 ft | 3 kts | 147° |
| 2026-05-08 06:09 | 45.66729 | 9.70152 | 786 ft | 4 kts | 135° |
| 2026-05-08 06:09 | 45.66711 | 9.70190 | 786 ft | 6 kts | 117° |
| 2026-05-08 06:09 | 45.66699 | 9.70235 | 786 ft | 1 kts | 107° |
| 2026-05-08 06:10 | 45.66698 | 9.70241 | 786 ft | 1 kts | 107° |
| 2026-05-08 06:10 | 45.66696 | 9.70253 | 786 ft | 1 kts | 105° |
| 2026-05-08 06:10 | 45.66693 | 9.70266 | 786 ft | 2 kts | 105° |
| 2026-05-08 06:10 | 45.66689 | 9.70289 | 786 ft | 3 kts | 105° |
| 2026-05-08 06:11 | 45.66682 | 9.70324 | 786 ft | 1 kts | 104° |
| 2026-05-08 06:11 | 45.66678 | 9.70346 | 786 ft | 3 kts | 104° |
| 2026-05-08 06:11 | 45.66671 | 9.70386 | 786 ft | 5 kts | 111° |
| 2026-05-08 06:11 | 45.66651 | 9.70407 | 786 ft | 2 kts | 168° |
| 2026-05-08 06:12 | 45.66629 | 9.70408 | 786 ft | 4 kts | 184° |
| 2026-05-08 06:12 | 45.66602 | 9.70397 | 786 ft | 3 kts | 195° |
| 2026-05-08 06:12 | 45.66592 | 9.70394 | 786 ft | 1 kts | 195° |
| 2026-05-08 06:12 | 45.66590 | 9.70393 | 786 ft | 0 kts | 195° |